sensor_id;sensor_type;location;lat;lon;timestamp;P1;durP1;ratioP1;P2;durP2;ratioP2
6133;SDS011;3098;42.678;23.364;2022-11-15T00:00:09;42.00;;;15.47;;
6133;SDS011;3098;42.678;23.364;2022-11-15T00:02:36;42.10;;;13.50;;
6133;SDS011;3098;42.678;23.364;2022-11-15T00:05:03;50.17;;;17.07;;
6133;SDS011;3098;42.678;23.364;2022-11-15T00:07:30;29.80;;;15.43;;
6133;SDS011;3098;42.678;23.364;2022-11-15T00:09:57;27.93;;;13.37;;
6133;SDS011;3098;42.678;23.364;2022-11-15T00:12:26;45.60;;;16.47;;
6133;SDS011;3098;42.678;23.364;2022-11-15T00:14:54;44.47;;;14.83;;
6133;SDS011;3098;42.678;23.364;2022-11-15T00:17:20;32.27;;;14.20;;
6133;SDS011;3098;42.678;23.364;2022-11-15T00:19:48;36.70;;;12.13;;
6133;SDS011;3098;42.678;23.364;2022-11-15T00:22:15;28.67;;;12.63;;
6133;SDS011;3098;42.678;23.364;2022-11-15T00:24:42;40.20;;;14.50;;
6133;SDS011;3098;42.678;23.364;2022-11-15T00:27:10;35.23;;;13.43;;
6133;SDS011;3098;42.678;23.364;2022-11-15T00:29:38;30.40;;;12.30;;
6133;SDS011;3098;42.678;23.364;2022-11-15T00:32:08;25.33;;;12.93;;
6133;SDS011;3098;42.678;23.364;2022-11-15T00:34:35;30.50;;;11.27;;
6133;SDS011;3098;42.678;23.364;2022-11-15T00:37:02;29.43;;;13.30;;
6133;SDS011;3098;42.678;23.364;2022-11-15T00:39:30;28.70;;;11.33;;
6133;SDS011;3098;42.678;23.364;2022-11-15T00:41:57;37.20;;;13.63;;
6133;SDS011;3098;42.678;23.364;2022-11-15T00:44:23;30.80;;;13.60;;
6133;SDS011;3098;42.678;23.364;2022-11-15T00:46:52;27.30;;;12.97;;
6133;SDS011;3098;42.678;23.364;2022-11-15T00:49:20;31.77;;;13.77;;
6133;SDS011;3098;42.678;23.364;2022-11-15T00:51:47;39.00;;;14.50;;
6133;SDS011;3098;42.678;23.364;2022-11-15T00:54:13;48.80;;;14.03;;
6133;SDS011;3098;42.678;23.364;2022-11-15T00:56:40;28.63;;;13.53;;
6133;SDS011;3098;42.678;23.364;2022-11-15T00:59:07;34.03;;;12.90;;
6133;SDS011;3098;42.678;23.364;2022-11-15T01:01:34;43.43;;;14.13;;
6133;SDS011;3098;42.678;23.364;2022-11-15T01:04:03;33.43;;;13.17;;
6133;SDS011;3098;42.678;23.364;2022-11-15T01:06:31;21.43;;;11.57;;
6133;SDS011;3098;42.678;23.364;2022-11-15T01:08:58;31.00;;;11.63;;
6133;SDS011;3098;42.678;23.364;2022-11-15T01:11:25;34.80;;;12.43;;
6133;SDS011;3098;42.678;23.364;2022-11-15T01:13:53;38.90;;;13.50;;
6133;SDS011;3098;42.678;23.364;2022-11-15T01:16:21;30.63;;;13.57;;
6133;SDS011;3098;42.678;23.364;2022-11-15T01:18:48;36.10;;;15.53;;
6133;SDS011;3098;42.678;23.364;2022-11-15T01:21:17;38.20;;;13.20;;
6133;SDS011;3098;42.678;23.364;2022-11-15T01:23:45;27.67;;;11.37;;
6133;SDS011;3098;42.678;23.364;2022-11-15T01:26:13;19.50;;;11.37;;
6133;SDS011;3098;42.678;23.364;2022-11-15T01:28:41;31.37;;;11.90;;
6133;SDS011;3098;42.678;23.364;2022-11-15T01:31:11;38.97;;;12.30;;
6133;SDS011;3098;42.678;23.364;2022-11-15T01:33:40;25.67;;;12.97;;
6133;SDS011;3098;42.678;23.364;2022-11-15T01:36:08;31.87;;;12.40;;
6133;SDS011;3098;42.678;23.364;2022-11-15T01:38:38;19.03;;;10.27;;
6133;SDS011;3098;42.678;23.364;2022-11-15T01:41:05;22.37;;;11.53;;
6133;SDS011;3098;42.678;23.364;2022-11-15T01:43:39;29.03;;;11.30;;
6133;SDS011;3098;42.678;23.364;2022-11-15T01:46:06;33.83;;;10.97;;
6133;SDS011;3098;42.678;23.364;2022-11-15T01:48:48;21.47;;;9.37;;
6133;SDS011;3098;42.678;23.364;2022-11-15T01:51:18;33.17;;;11.53;;
6133;SDS011;3098;42.678;23.364;2022-11-15T01:53:49;20.10;;;11.13;;
6133;SDS011;3098;42.678;23.364;2022-11-15T01:56:23;24.93;;;11.17;;
6133;SDS011;3098;42.678;23.364;2022-11-15T01:58:55;17.33;;;8.77;;
6133;SDS011;3098;42.678;23.364;2022-11-15T02:01:25;29.23;;;12.57;;
6133;SDS011;3098;42.678;23.364;2022-11-15T02:03:56;13.63;;;7.60;;
6133;SDS011;3098;42.678;23.364;2022-11-15T02:06:26;40.07;;;11.87;;
6133;SDS011;3098;42.678;23.364;2022-11-15T02:08:54;22.67;;;10.97;;
6133;SDS011;3098;42.678;23.364;2022-11-15T02:11:23;35.07;;;13.40;;
6133;SDS011;3098;42.678;23.364;2022-11-15T02:13:50;31.20;;;15.60;;
6133;SDS011;3098;42.678;23.364;2022-11-15T02:16:20;23.40;;;11.83;;
6133;SDS011;3098;42.678;23.364;2022-11-15T02:18:59;18.23;;;10.80;;
6133;SDS011;3098;42.678;23.364;2022-11-15T02:21:33;31.47;;;11.57;;
6133;SDS011;3098;42.678;23.364;2022-11-15T02:24:15;38.10;;;15.30;;
6133;SDS011;3098;42.678;23.364;2022-11-15T02:30:26;30.87;;;11.40;;
6133;SDS011;3098;42.678;23.364;2022-11-15T02:33:01;28.43;;;12.30;;
6133;SDS011;3098;42.678;23.364;2022-11-15T02:35:39;24.60;;;10.20;;
6133;SDS011;3098;42.678;23.364;2022-11-15T02:38:15;32.17;;;13.13;;
6133;SDS011;3098;42.678;23.364;2022-11-15T02:40:49;59.30;;;16.57;;
6133;SDS011;3098;42.678;23.364;2022-11-15T02:43:23;29.47;;;14.00;;
6133;SDS011;3098;42.678;23.364;2022-11-15T02:46:14;33.47;;;13.87;;
6133;SDS011;3098;42.678;23.364;2022-11-15T02:48:46;35.37;;;16.37;;
6133;SDS011;3098;42.678;23.364;2022-11-15T02:51:14;35.80;;;16.00;;
6133;SDS011;3098;42.678;23.364;2022-11-15T02:53:42;23.77;;;12.07;;
6133;SDS011;3098;42.678;23.364;2022-11-15T02:56:10;31.30;;;15.87;;
6133;SDS011;3098;42.678;23.364;2022-11-15T03:01:45;29.20;;;14.47;;
6133;SDS011;3098;42.678;23.364;2022-11-15T03:04:23;50.80;;;19.37;;
6133;SDS011;3098;42.678;23.364;2022-11-15T03:07:01;39.97;;;13.27;;
6133;SDS011;3098;42.678;23.364;2022-11-15T03:09:39;30.73;;;14.20;;
6133;SDS011;3098;42.678;23.364;2022-11-15T03:12:13;29.40;;;12.43;;
6133;SDS011;3098;42.678;23.364;2022-11-15T03:14:50;25.77;;;12.30;;
6133;SDS011;3098;42.678;23.364;2022-11-15T03:17:25;22.80;;;10.83;;
6133;SDS011;3098;42.678;23.364;2022-11-15T03:19:55;27.37;;;13.50;;
6133;SDS011;3098;42.678;23.364;2022-11-15T03:22:27;17.43;;;11.30;;
6133;SDS011;3098;42.678;23.364;2022-11-15T03:24:57;21.30;;;10.43;;
6133;SDS011;3098;42.678;23.364;2022-11-15T03:27:29;22.97;;;8.63;;
6133;SDS011;3098;42.678;23.364;2022-11-15T03:30:04;24.73;;;9.77;;
6133;SDS011;3098;42.678;23.364;2022-11-15T03:32:35;9.70;;;6.47;;
6133;SDS011;3098;42.678;23.364;2022-11-15T03:35:06;18.23;;;9.50;;
6133;SDS011;3098;42.678;23.364;2022-11-15T03:37:36;19.00;;;8.30;;
6133;SDS011;3098;42.678;23.364;2022-11-15T03:40:07;31.53;;;10.77;;
6133;SDS011;3098;42.678;23.364;2022-11-15T03:42:37;16.37;;;8.50;;
6133;SDS011;3098;42.678;23.364;2022-11-15T03:45:10;17.10;;;6.90;;
6133;SDS011;3098;42.678;23.364;2022-11-15T03:47:45;21.57;;;10.17;;
6133;SDS011;3098;42.678;23.364;2022-11-15T03:50:18;12.27;;;6.60;;
6133;SDS011;3098;42.678;23.364;2022-11-15T03:52:47;10.87;;;6.93;;
6133;SDS011;3098;42.678;23.364;2022-11-15T03:55:17;14.07;;;6.77;;
6133;SDS011;3098;42.678;23.364;2022-11-15T03:57:45;26.73;;;9.20;;
6133;SDS011;3098;42.678;23.364;2022-11-15T04:00:14;17.70;;;7.30;;
6133;SDS011;3098;42.678;23.364;2022-11-15T04:02:42;12.90;;;6.17;;
6133;SDS011;3098;42.678;23.364;2022-11-15T04:05:11;11.37;;;4.97;;
6133;SDS011;3098;42.678;23.364;2022-11-15T04:07:39;12.10;;;6.67;;
6133;SDS011;3098;42.678;23.364;2022-11-15T04:10:06;11.07;;;7.77;;
6133;SDS011;3098;42.678;23.364;2022-11-15T04:12:36;9.93;;;5.87;;
6133;SDS011;3098;42.678;23.364;2022-11-15T04:15:08;10.37;;;7.23;;
6133;SDS011;3098;42.678;23.364;2022-11-15T04:17:38;10.93;;;6.83;;
6133;SDS011;3098;42.678;23.364;2022-11-15T04:20:08;12.20;;;6.70;;
6133;SDS011;3098;42.678;23.364;2022-11-15T04:22:56;12.00;;;8.40;;
6133;SDS011;3098;42.678;23.364;2022-11-15T04:25:42;13.33;;;6.20;;
6133;SDS011;3098;42.678;23.364;2022-11-15T04:28:10;17.83;;;7.40;;
6133;SDS011;3098;42.678;23.364;2022-11-15T04:30:38;9.90;;;5.57;;
6133;SDS011;3098;42.678;23.364;2022-11-15T04:33:05;14.90;;;6.03;;
6133;SDS011;3098;42.678;23.364;2022-11-15T04:35:32;20.83;;;7.87;;
6133;SDS011;3098;42.678;23.364;2022-11-15T04:38:02;11.37;;;6.80;;
6133;SDS011;3098;42.678;23.364;2022-11-15T04:40:29;10.20;;;5.23;;
6133;SDS011;3098;42.678;23.364;2022-11-15T04:42:57;14.97;;;7.43;;
6133;SDS011;3098;42.678;23.364;2022-11-15T04:45:24;11.63;;;6.43;;
6133;SDS011;3098;42.678;23.364;2022-11-15T04:47:51;11.03;;;6.10;;
6133;SDS011;3098;42.678;23.364;2022-11-15T04:50:18;7.00;;;4.60;;
6133;SDS011;3098;42.678;23.364;2022-11-15T04:52:50;18.37;;;6.97;;
6133;SDS011;3098;42.678;23.364;2022-11-15T04:55:20;18.70;;;5.70;;
6133;SDS011;3098;42.678;23.364;2022-11-15T04:57:48;15.37;;;5.77;;
6133;SDS011;3098;42.678;23.364;2022-11-15T05:00:24;6.57;;;4.63;;
6133;SDS011;3098;42.678;23.364;2022-11-15T05:02:51;11.17;;;6.17;;
6133;SDS011;3098;42.678;23.364;2022-11-15T05:05:35;11.30;;;5.00;;
6133;SDS011;3098;42.678;23.364;2022-11-15T05:08:03;10.67;;;4.70;;
6133;SDS011;3098;42.678;23.364;2022-11-15T05:10:34;12.03;;;4.83;;
6133;SDS011;3098;42.678;23.364;2022-11-15T05:13:01;8.30;;;4.80;;
6133;SDS011;3098;42.678;23.364;2022-11-15T05:15:28;10.87;;;5.93;;
6133;SDS011;3098;42.678;23.364;2022-11-15T05:17:57;9.20;;;4.17;;
6133;SDS011;3098;42.678;23.364;2022-11-15T05:20:25;7.60;;;3.87;;
6133;SDS011;3098;42.678;23.364;2022-11-15T05:22:52;9.63;;;4.03;;
6133;SDS011;3098;42.678;23.364;2022-11-15T05:25:20;7.70;;;3.37;;
6133;SDS011;3098;42.678;23.364;2022-11-15T05:27:49;8.03;;;3.30;;
6133;SDS011;3098;42.678;23.364;2022-11-15T05:30:16;5.80;;;3.63;;
6133;SDS011;3098;42.678;23.364;2022-11-15T05:32:43;5.47;;;3.67;;
6133;SDS011;3098;42.678;23.364;2022-11-15T05:35:13;12.63;;;3.73;;
6133;SDS011;3098;42.678;23.364;2022-11-15T05:37:46;15.40;;;2.87;;
6133;SDS011;3098;42.678;23.364;2022-11-15T05:40:14;23.33;;;6.30;;
6133;SDS011;3098;42.678;23.364;2022-11-15T05:42:42;6.90;;;2.87;;
6133;SDS011;3098;42.678;23.364;2022-11-15T05:45:11;5.77;;;4.00;;
6133;SDS011;3098;42.678;23.364;2022-11-15T05:47:39;5.97;;;2.97;;
6133;SDS011;3098;42.678;23.364;2022-11-15T05:50:08;14.03;;;3.83;;
6133;SDS011;3098;42.678;23.364;2022-11-15T05:52:39;10.53;;;3.30;;
6133;SDS011;3098;42.678;23.364;2022-11-15T05:55:06;4.50;;;2.73;;
6133;SDS011;3098;42.678;23.364;2022-11-15T05:57:35;3.37;;;1.97;;
6133;SDS011;3098;42.678;23.364;2022-11-15T06:00:03;16.97;;;4.23;;
6133;SDS011;3098;42.678;23.364;2022-11-15T06:02:33;4.03;;;2.83;;
6133;SDS011;3098;42.678;23.364;2022-11-15T06:05:00;5.90;;;3.97;;
6133;SDS011;3098;42.678;23.364;2022-11-15T06:07:27;4.93;;;4.40;;
6133;SDS011;3098;42.678;23.364;2022-11-15T06:09:55;8.73;;;4.40;;
6133;SDS011;3098;42.678;23.364;2022-11-15T06:12:23;5.57;;;3.83;;
6133;SDS011;3098;42.678;23.364;2022-11-15T06:14:52;9.80;;;4.13;;
6133;SDS011;3098;42.678;23.364;2022-11-15T06:17:19;13.97;;;5.13;;
6133;SDS011;3098;42.678;23.364;2022-11-15T06:19:47;13.63;;;5.10;;
6133;SDS011;3098;42.678;23.364;2022-11-15T06:22:15;14.43;;;5.03;;
6133;SDS011;3098;42.678;23.364;2022-11-15T06:24:43;12.43;;;5.00;;
6133;SDS011;3098;42.678;23.364;2022-11-15T06:27:11;6.27;;;3.73;;
6133;SDS011;3098;42.678;23.364;2022-11-15T06:29:38;19.53;;;5.13;;
6133;SDS011;3098;42.678;23.364;2022-11-15T06:32:06;9.70;;;5.33;;
6133;SDS011;3098;42.678;23.364;2022-11-15T06:34:35;11.67;;;5.67;;
6133;SDS011;3098;42.678;23.364;2022-11-15T06:37:03;7.83;;;4.53;;
6133;SDS011;3098;42.678;23.364;2022-11-15T06:39:31;9.13;;;4.83;;
6133;SDS011;3098;42.678;23.364;2022-11-15T06:41:58;21.37;;;6.43;;
6133;SDS011;3098;42.678;23.364;2022-11-15T06:44:25;10.93;;;3.87;;
6133;SDS011;3098;42.678;23.364;2022-11-15T06:46:53;10.03;;;3.47;;
6133;SDS011;3098;42.678;23.364;2022-11-15T06:49:20;8.53;;;3.90;;
6133;SDS011;3098;42.678;23.364;2022-11-15T06:51:47;17.60;;;5.63;;
6133;SDS011;3098;42.678;23.364;2022-11-15T06:54:16;6.77;;;4.13;;
6133;SDS011;3098;42.678;23.364;2022-11-15T06:56:43;11.40;;;5.27;;
6133;SDS011;3098;42.678;23.364;2022-11-15T06:59:11;22.73;;;9.57;;
6133;SDS011;3098;42.678;23.364;2022-11-15T07:01:39;9.47;;;4.23;;
6133;SDS011;3098;42.678;23.364;2022-11-15T07:04:07;10.87;;;4.87;;
6133;SDS011;3098;42.678;23.364;2022-11-15T07:06:34;11.80;;;4.83;;
6133;SDS011;3098;42.678;23.364;2022-11-15T07:09:02;11.80;;;4.90;;
6133;SDS011;3098;42.678;23.364;2022-11-15T07:11:31;15.67;;;5.17;;
6133;SDS011;3098;42.678;23.364;2022-11-15T07:13:59;10.37;;;5.23;;
6133;SDS011;3098;42.678;23.364;2022-11-15T07:16:26;22.57;;;8.00;;
6133;SDS011;3098;42.678;23.364;2022-11-15T07:18:53;6.77;;;4.83;;
6133;SDS011;3098;42.678;23.364;2022-11-15T07:21:20;10.63;;;4.97;;
6133;SDS011;3098;42.678;23.364;2022-11-15T07:23:47;12.47;;;3.07;;
6133;SDS011;3098;42.678;23.364;2022-11-15T07:26:15;11.97;;;5.57;;
6133;SDS011;3098;42.678;23.364;2022-11-15T07:28:43;10.43;;;4.93;;
6133;SDS011;3098;42.678;23.364;2022-11-15T07:31:11;6.40;;;4.43;;
6133;SDS011;3098;42.678;23.364;2022-11-15T07:33:38;15.83;;;5.50;;
6133;SDS011;3098;42.678;23.364;2022-11-15T07:36:06;7.70;;;4.17;;
6133;SDS011;3098;42.678;23.364;2022-11-15T07:38:35;11.33;;;6.13;;
6133;SDS011;3098;42.678;23.364;2022-11-15T07:41:06;14.70;;;5.33;;
6133;SDS011;3098;42.678;23.364;2022-11-15T07:43:39;12.53;;;4.63;;
6133;SDS011;3098;42.678;23.364;2022-11-15T07:46:11;15.83;;;6.50;;
6133;SDS011;3098;42.678;23.364;2022-11-15T07:48:39;13.20;;;7.33;;
6133;SDS011;3098;42.678;23.364;2022-11-15T07:51:11;7.33;;;4.10;;
6133;SDS011;3098;42.678;23.364;2022-11-15T07:53:39;19.10;;;6.83;;
6133;SDS011;3098;42.678;23.364;2022-11-15T07:56:07;15.17;;;4.63;;
6133;SDS011;3098;42.678;23.364;2022-11-15T07:58:34;21.07;;;6.70;;
6133;SDS011;3098;42.678;23.364;2022-11-15T08:01:07;10.67;;;4.57;;
6133;SDS011;3098;42.678;23.364;2022-11-15T08:03:45;12.40;;;5.67;;
6133;SDS011;3098;42.678;23.364;2022-11-15T08:06:13;16.57;;;6.40;;
6133;SDS011;3098;42.678;23.364;2022-11-15T08:08:40;7.70;;;4.50;;
6133;SDS011;3098;42.678;23.364;2022-11-15T08:11:08;18.80;;;6.03;;
6133;SDS011;3098;42.678;23.364;2022-11-15T08:13:35;13.53;;;6.63;;
6133;SDS011;3098;42.678;23.364;2022-11-15T08:16:02;28.50;;;7.40;;
6133;SDS011;3098;42.678;23.364;2022-11-15T08:18:30;19.90;;;7.53;;
6133;SDS011;3098;42.678;23.364;2022-11-15T08:20:59;22.50;;;6.73;;
6133;SDS011;3098;42.678;23.364;2022-11-15T08:23:28;9.83;;;5.23;;
6133;SDS011;3098;42.678;23.364;2022-11-15T08:25:59;7.63;;;4.43;;
6133;SDS011;3098;42.678;23.364;2022-11-15T08:28:27;18.50;;;6.93;;
6133;SDS011;3098;42.678;23.364;2022-11-15T08:30:54;12.00;;;6.80;;
6133;SDS011;3098;42.678;23.364;2022-11-15T08:33:21;19.77;;;6.80;;
6133;SDS011;3098;42.678;23.364;2022-11-15T08:35:49;23.47;;;7.57;;
6133;SDS011;3098;42.678;23.364;2022-11-15T08:38:17;20.93;;;7.10;;
6133;SDS011;3098;42.678;23.364;2022-11-15T08:40:45;24.27;;;9.00;;
6133;SDS011;3098;42.678;23.364;2022-11-15T08:43:25;28.57;;;6.03;;
6133;SDS011;3098;42.678;23.364;2022-11-15T08:45:54;18.20;;;7.47;;
6133;SDS011;3098;42.678;23.364;2022-11-15T08:48:22;13.57;;;7.23;;
6133;SDS011;3098;42.678;23.364;2022-11-15T08:50:51;25.70;;;7.13;;
6133;SDS011;3098;42.678;23.364;2022-11-15T08:53:22;32.20;;;8.30;;
6133;SDS011;3098;42.678;23.364;2022-11-15T08:55:49;15.37;;;8.20;;
6133;SDS011;3098;42.678;23.364;2022-11-15T08:58:16;21.47;;;10.37;;
6133;SDS011;3098;42.678;23.364;2022-11-15T09:00:48;29.60;;;9.30;;
6133;SDS011;3098;42.678;23.364;2022-11-15T09:03:20;17.87;;;7.73;;
6133;SDS011;3098;42.678;23.364;2022-11-15T09:05:47;22.77;;;10.70;;
6133;SDS011;3098;42.678;23.364;2022-11-15T09:08:14;21.73;;;9.63;;
6133;SDS011;3098;42.678;23.364;2022-11-15T09:10:43;26.50;;;9.03;;
6133;SDS011;3098;42.678;23.364;2022-11-15T09:13:10;23.60;;;9.03;;
6133;SDS011;3098;42.678;23.364;2022-11-15T09:15:37;21.53;;;8.80;;
6133;SDS011;3098;42.678;23.364;2022-11-15T09:18:04;27.47;;;10.33;;
6133;SDS011;3098;42.678;23.364;2022-11-15T09:20:31;40.70;;;11.27;;
6133;SDS011;3098;42.678;23.364;2022-11-15T09:22:59;31.47;;;10.63;;
6133;SDS011;3098;42.678;23.364;2022-11-15T09:25:29;20.70;;;8.13;;
6133;SDS011;3098;42.678;23.364;2022-11-15T09:27:57;30.13;;;10.97;;
6133;SDS011;3098;42.678;23.364;2022-11-15T09:30:24;27.93;;;10.23;;
6133;SDS011;3098;42.678;23.364;2022-11-15T09:32:52;25.77;;;10.90;;
6133;SDS011;3098;42.678;23.364;2022-11-15T09:35:20;24.13;;;7.33;;
6133;SDS011;3098;42.678;23.364;2022-11-15T09:37:47;28.87;;;9.87;;
6133;SDS011;3098;42.678;23.364;2022-11-15T09:40:15;33.13;;;9.63;;
6133;SDS011;3098;42.678;23.364;2022-11-15T09:43:00;21.20;;;7.77;;
6133;SDS011;3098;42.678;23.364;2022-11-15T09:45:53;32.50;;;11.10;;
6133;SDS011;3098;42.678;23.364;2022-11-15T09:48:36;41.13;;;11.23;;
6133;SDS011;3098;42.678;23.364;2022-11-15T09:51:17;25.27;;;11.70;;
6133;SDS011;3098;42.678;23.364;2022-11-15T09:53:52;33.37;;;10.47;;
6133;SDS011;3098;42.678;23.364;2022-11-15T09:56:29;46.07;;;13.27;;
6133;SDS011;3098;42.678;23.364;2022-11-15T09:59:06;31.97;;;9.87;;
6133;SDS011;3098;42.678;23.364;2022-11-15T10:01:48;50.83;;;11.83;;
6133;SDS011;3098;42.678;23.364;2022-11-15T10:04:21;34.67;;;11.83;;
6133;SDS011;3098;42.678;23.364;2022-11-15T10:06:52;39.75;;;13.50;;
6133;SDS011;3098;42.678;23.364;2022-11-15T10:09:26;22.02;;;10.15;;
6133;SDS011;3098;42.678;23.364;2022-11-15T10:11:59;32.08;;;10.35;;
6133;SDS011;3098;42.678;23.364;2022-11-15T10:14:28;28.67;;;11.15;;
6133;SDS011;3098;42.678;23.364;2022-11-15T10:17:12;32.28;;;13.38;;
6133;SDS011;3098;42.678;23.364;2022-11-15T10:20:11;35.13;;;13.52;;
6133;SDS011;3098;42.678;23.364;2022-11-15T10:22:46;16.17;;;8.27;;
6133;SDS011;3098;42.678;23.364;2022-11-15T10:25:19;28.20;;;13.63;;
6133;SDS011;3098;42.678;23.364;2022-11-15T10:27:52;32.58;;;13.68;;
6133;SDS011;3098;42.678;23.364;2022-11-15T10:30:28;39.08;;;15.35;;
6133;SDS011;3098;42.678;23.364;2022-11-15T10:36:14;35.55;;;14.82;;
6133;SDS011;3098;42.678;23.364;2022-11-15T10:38:57;33.88;;;13.00;;
6133;SDS011;3098;42.678;23.364;2022-11-15T10:41:32;36.47;;;13.45;;
6133;SDS011;3098;42.678;23.364;2022-11-15T10:44:08;30.48;;;12.77;;
6133;SDS011;3098;42.678;23.364;2022-11-15T10:46:46;30.90;;;12.85;;
6133;SDS011;3098;42.678;23.364;2022-11-15T10:49:29;41.00;;;12.82;;
6133;SDS011;3098;42.678;23.364;2022-11-15T10:51:58;41.42;;;14.77;;
6133;SDS011;3098;42.678;23.364;2022-11-15T10:54:28;30.08;;;13.27;;
6133;SDS011;3098;42.678;23.364;2022-11-15T10:57:00;36.95;;;12.63;;
6133;SDS011;3098;42.678;23.364;2022-11-15T10:59:35;34.72;;;13.35;;
6133;SDS011;3098;42.678;23.364;2022-11-15T11:04:58;33.78;;;13.48;;
6133;SDS011;3098;42.678;23.364;2022-11-15T11:07:26;28.00;;;10.77;;
6133;SDS011;3098;42.678;23.364;2022-11-15T11:09:59;37.08;;;15.70;;
6133;SDS011;3098;42.678;23.364;2022-11-15T11:12:28;44.55;;;13.10;;
6133;SDS011;3098;42.678;23.364;2022-11-15T11:14:58;36.92;;;11.27;;
6133;SDS011;3098;42.678;23.364;2022-11-15T11:17:32;33.75;;;10.32;;
6133;SDS011;3098;42.678;23.364;2022-11-15T11:20:14;31.85;;;11.30;;
6133;SDS011;3098;42.678;23.364;2022-11-15T11:22:53;28.08;;;12.52;;
6133;SDS011;3098;42.678;23.364;2022-11-15T11:25:30;24.20;;;11.15;;
6133;SDS011;3098;42.678;23.364;2022-11-15T11:28:05;24.33;;;11.35;;
6133;SDS011;3098;42.678;23.364;2022-11-15T11:30:47;42.00;;;13.50;;
6133;SDS011;3098;42.678;23.364;2022-11-15T11:33:27;32.97;;;11.13;;
6133;SDS011;3098;42.678;23.364;2022-11-15T11:36:03;33.35;;;13.48;;
6133;SDS011;3098;42.678;23.364;2022-11-15T11:38:44;20.70;;;10.05;;
6133;SDS011;3098;42.678;23.364;2022-11-15T11:41:38;24.08;;;12.50;;
6133;SDS011;3098;42.678;23.364;2022-11-15T11:44:24;28.67;;;11.43;;
6133;SDS011;3098;42.678;23.364;2022-11-15T11:47:08;22.45;;;10.63;;
6133;SDS011;3098;42.678;23.364;2022-11-15T11:49:41;31.73;;;10.88;;
6133;SDS011;3098;42.678;23.364;2022-11-15T11:52:16;30.60;;;11.45;;
6133;SDS011;3098;42.678;23.364;2022-11-15T11:54:52;32.65;;;10.82;;
6133;SDS011;3098;42.678;23.364;2022-11-15T11:57:28;26.15;;;10.38;;
6133;SDS011;3098;42.678;23.364;2022-11-15T12:00:02;27.85;;;10.73;;
6133;SDS011;3098;42.678;23.364;2022-11-15T12:02:33;36.15;;;10.65;;
6133;SDS011;3098;42.678;23.364;2022-11-15T12:05:09;29.95;;;11.82;;
6133;SDS011;3098;42.678;23.364;2022-11-15T12:07:41;27.60;;;11.25;;
6133;SDS011;3098;42.678;23.364;2022-11-15T12:10:19;23.80;;;10.15;;
6133;SDS011;3098;42.678;23.364;2022-11-15T12:12:54;29.33;;;10.45;;
6133;SDS011;3098;42.678;23.364;2022-11-15T12:15:26;26.50;;;10.70;;
6133;SDS011;3098;42.678;23.364;2022-11-15T12:17:56;22.08;;;9.55;;
6133;SDS011;3098;42.678;23.364;2022-11-15T12:20:30;27.10;;;11.20;;
6133;SDS011;3098;42.678;23.364;2022-11-15T12:23:03;26.67;;;10.85;;
6133;SDS011;3098;42.678;23.364;2022-11-15T12:25:38;27.33;;;11.35;;
6133;SDS011;3098;42.678;23.364;2022-11-15T12:28:17;27.13;;;9.68;;
6133;SDS011;3098;42.678;23.364;2022-11-15T12:30:53;26.75;;;11.95;;
6133;SDS011;3098;42.678;23.364;2022-11-15T12:33:30;37.28;;;12.60;;
6133;SDS011;3098;42.678;23.364;2022-11-15T12:36:03;26.45;;;12.18;;
6133;SDS011;3098;42.678;23.364;2022-11-15T12:38:52;33.55;;;12.93;;
6133;SDS011;3098;42.678;23.364;2022-11-15T12:41:21;29.65;;;12.35;;
6133;SDS011;3098;42.678;23.364;2022-11-15T12:43:50;24.70;;;11.75;;
6133;SDS011;3098;42.678;23.364;2022-11-15T12:46:21;40.70;;;12.95;;
6133;SDS011;3098;42.678;23.364;2022-11-15T12:49:11;29.67;;;11.23;;
6133;SDS011;3098;42.678;23.364;2022-11-15T12:52:14;27.52;;;11.15;;
6133;SDS011;3098;42.678;23.364;2022-11-15T12:54:55;27.95;;;11.90;;
6133;SDS011;3098;42.678;23.364;2022-11-15T12:57:49;32.05;;;11.05;;
6133;SDS011;3098;42.678;23.364;2022-11-15T13:03:16;24.70;;;8.63;;
6133;SDS011;3098;42.678;23.364;2022-11-15T13:08:58;30.83;;;12.15;;
6133;SDS011;3098;42.678;23.364;2022-11-15T13:20:18;22.63;;;10.98;;
6133;SDS011;3098;42.678;23.364;2022-11-15T13:22:48;23.40;;;11.18;;
6133;SDS011;3098;42.678;23.364;2022-11-15T13:25:25;27.00;;;12.13;;
6133;SDS011;3098;42.678;23.364;2022-11-15T13:28:09;29.08;;;12.85;;
6133;SDS011;3098;42.678;23.364;2022-11-15T13:30:48;30.92;;;12.90;;
6133;SDS011;3098;42.678;23.364;2022-11-15T13:33:18;36.10;;;11.63;;
6133;SDS011;3098;42.678;23.364;2022-11-15T13:35:49;25.50;;;10.35;;
6133;SDS011;3098;42.678;23.364;2022-11-15T13:38:19;22.25;;;11.50;;
6133;SDS011;3098;42.678;23.364;2022-11-15T13:40:55;29.35;;;13.98;;
6133;SDS011;3098;42.678;23.364;2022-11-15T13:43:33;37.53;;;14.45;;
6133;SDS011;3098;42.678;23.364;2022-11-15T13:46:05;38.92;;;13.98;;
6133;SDS011;3098;42.678;23.364;2022-11-15T13:48:33;37.10;;;13.18;;
6133;SDS011;3098;42.678;23.364;2022-11-15T13:51:02;34.58;;;12.63;;
6133;SDS011;3098;42.678;23.364;2022-11-15T13:53:31;37.67;;;13.65;;
6133;SDS011;3098;42.678;23.364;2022-11-15T13:56:01;30.42;;;12.93;;
6133;SDS011;3098;42.678;23.364;2022-11-15T13:58:29;40.17;;;13.77;;
6133;SDS011;3098;42.678;23.364;2022-11-15T14:00:59;29.70;;;15.13;;
6133;SDS011;3098;42.678;23.364;2022-11-15T14:03:28;43.80;;;13.75;;
6133;SDS011;3098;42.678;23.364;2022-11-15T14:06:07;34.22;;;13.88;;
6133;SDS011;3098;42.678;23.364;2022-11-15T14:08:37;28.75;;;13.32;;
6133;SDS011;3098;42.678;23.364;2022-11-15T14:11:07;34.92;;;13.45;;
6133;SDS011;3098;42.678;23.364;2022-11-15T14:13:37;32.22;;;12.77;;
6133;SDS011;3098;42.678;23.364;2022-11-15T14:16:18;24.60;;;10.43;;
6133;SDS011;3098;42.678;23.364;2022-11-15T14:18:47;38.95;;;13.55;;
6133;SDS011;3098;42.678;23.364;2022-11-15T14:21:15;38.55;;;12.90;;
6133;SDS011;3098;42.678;23.364;2022-11-15T14:23:43;30.30;;;13.32;;
6133;SDS011;3098;42.678;23.364;2022-11-15T14:31:49;23.55;;;11.05;;
6133;SDS011;3098;42.678;23.364;2022-11-15T14:34:16;27.90;;;11.45;;
6133;SDS011;3098;42.678;23.364;2022-11-15T14:36:44;31.88;;;12.15;;
6133;SDS011;3098;42.678;23.364;2022-11-15T14:39:11;34.83;;;14.15;;
6133;SDS011;3098;42.678;23.364;2022-11-15T14:41:40;28.77;;;12.93;;
6133;SDS011;3098;42.678;23.364;2022-11-15T14:44:09;21.15;;;11.35;;
6133;SDS011;3098;42.678;23.364;2022-11-15T14:46:43;37.63;;;10.65;;
6133;SDS011;3098;42.678;23.364;2022-11-15T14:49:11;25.85;;;10.30;;
6133;SDS011;3098;42.678;23.364;2022-11-15T14:51:39;23.42;;;10.98;;
6133;SDS011;3098;42.678;23.364;2022-11-15T14:54:08;31.77;;;10.02;;
6133;SDS011;3098;42.678;23.364;2022-11-15T14:56:37;36.90;;;14.30;;
6133;SDS011;3098;42.678;23.364;2022-11-15T14:59:15;41.15;;;12.40;;
6133;SDS011;3098;42.678;23.364;2022-11-15T15:01:45;15.43;;;9.40;;
6133;SDS011;3098;42.678;23.364;2022-11-15T15:04:13;22.77;;;11.02;;
6133;SDS011;3098;42.678;23.364;2022-11-15T15:06:41;24.53;;;12.13;;
6133;SDS011;3098;42.678;23.364;2022-11-15T15:09:08;28.47;;;10.53;;
6133;SDS011;3098;42.678;23.364;2022-11-15T15:11:36;26.58;;;13.25;;
6133;SDS011;3098;42.678;23.364;2022-11-15T15:14:05;48.50;;;13.77;;
6133;SDS011;3098;42.678;23.364;2022-11-15T15:16:32;23.87;;;11.53;;
6133;SDS011;3098;42.678;23.364;2022-11-15T15:18:59;24.00;;;12.10;;
6133;SDS011;3098;42.678;23.364;2022-11-15T15:21:27;27.77;;;11.37;;
6133;SDS011;3098;42.678;23.364;2022-11-15T15:23:56;26.08;;;10.20;;
6133;SDS011;3098;42.678;23.364;2022-11-15T15:26:23;27.60;;;11.70;;
6133;SDS011;3098;42.678;23.364;2022-11-15T15:28:52;27.50;;;9.00;;
6133;SDS011;3098;42.678;23.364;2022-11-15T15:31:21;25.80;;;10.43;;
6133;SDS011;3098;42.678;23.364;2022-11-15T15:33:48;28.03;;;10.93;;
6133;SDS011;3098;42.678;23.364;2022-11-15T15:36:17;25.50;;;10.10;;